Time;durP1;ratioP1;P1;durP2;ratioP2;P2;SDS_P1;SDS_P2;PMS_P1;PMS_P2;Temp;Humidity;BMP_temperature;BMP_pressure;BME280_temperature;BME280_humidity;BME280_pressure;Samples;Min_cycle;Max_cycle;Signal;HPM_P1;HPM_P2
2022/04/13 00:00:10;;;;;;;;;;;;;;;19.28;74.34;98516.91;5069700;28;19981;-44
2022/04/13 00:02:35;;;;;;;;;;;;;;;19.42;75.36;98529.75;5069856;28;19920;-45
2022/04/13 00:05:01;;;;;;;;;;;;;;;19.45;75.73;98529.50;5068864;28;19920;-47
2022/04/13 00:07:26;;;;;;;;;;;;;;;18.92;77.42;98536.97;5067848;28;19921;-45
2022/04/13 00:09:51;;;;;;;;;;;;;;;19.82;74.68;98531.97;5072408;28;20613;-46
2022/04/13 00:12:16;;;;;;;;;;;;;;;19.36;75.21;98531.06;5066878;28;20274;-46
2022/04/13 00:14:42;;;;;;;;;;;;;;;19.54;75.12;98534.03;5069491;28;19924;-45
2022/04/13 00:17:07;;;;;;;;;;;;;;;19.74;74.05;98529.09;5071312;28;19928;-45
2022/04/13 00:19:32;;;;;;;;;;;;;;;19.76;73.46;98528.03;5067851;28;19916;-46
2022/04/13 00:21:58;;;;;;;;;;;;;;;19.76;75.20;98525.41;5069472;28;19917;-45
2022/04/13 00:24:23;;;;;;;;;;;;;;;19.87;75.59;98529.81;5070733;28;19925;-45
2022/04/13 00:26:48;;;;;;;;;;;;;;;19.53;76.04;98521.94;5071073;28;19930;-46
2022/04/13 00:29:14;;;;;;;;;;;;;;;18.96;80.03;98527.97;5069749;28;20371;-45
2022/04/13 00:31:39;;;;;;;;;;;;;;;19.29;80.31;98523.78;5071650;28;20011;-46
2022/04/13 00:34:05;;;;;;;;;;;;;;;19.04;76.83;98517.78;5071168;28;19927;-44
2022/04/13 00:36:30;;;;;;;;;;;;;;;18.79;80.68;98526.59;5068356;28;19920;-46
2022/04/13 00:38:55;;;;;;;;;;;;;;;19.51;78.27;98517.78;5066718;28;19924;-45
2022/04/13 00:41:21;;;;;;;;;;;;;;;19.46;77.59;98514.69;5065667;28;19999;-46
2022/04/13 00:43:59;;;;;;;;;;;;;;;19.43;77.13;98510.50;5070737;28;19924;-45
2022/04/13 00:46:25;;;;;;;;;;;;;;;19.41;78.30;98515.88;5067954;28;20635;-45
2022/04/13 00:48:50;;;;;;;;;;;;;;;19.48;78.87;98523.22;5071227;28;19912;-48
2022/04/13 00:51:15;;;;;;;;;;;;;;;19.33;78.45;98525.22;5067238;28;19920;-48
2022/04/13 00:53:40;;;;;;;;;;;;;;;19.16;78.85;98524.72;5069956;28;20010;-46
2022/04/13 00:56:06;;;;;;;;;;;;;;;19.73;77.70;98523.03;5067848;28;20781;-45
2022/04/13 00:58:32;;;;;;;;;;;;;;;20.00;73.92;98520.06;5067058;28;19931;-46
2022/04/13 01:00:57;;;;;;;;;;;;;;;19.58;77.55;98525.00;5068880;28;19931;-45
2022/04/13 01:03:24;;;;;;;;;;;;;;;20.08;75.04;98519.44;5071301;28;19947;-46
2022/04/13 01:05:50;;;;;;;;;;;;;;;20.01;75.81;98520.88;5069659;28;19924;-46
2022/04/13 01:08:17;;;;;;;;;;;;;;;20.27;74.86;98524.03;5070534;28;19920;-48
2022/04/13 01:10:42;;;;;;;;;;;;;;;20.25;76.74;98539.88;5067222;28;20671;-44
2022/04/13 01:13:08;;;;;;;;;;;;;;;19.92;77.24;98537.28;5071697;28;19920;-46
2022/04/13 01:15:33;;;;;;;;;;;;;;;19.95;79.08;98547.50;5070472;28;20399;-44
2022/04/13 01:17:59;;;;;;;;;;;;;;;19.87;78.66;98549.91;5068442;28;19966;-44
2022/04/13 01:20:25;;;;;;;;;;;;;;;19.76;79.47;98555.94;5069790;28;19920;-44
2022/04/13 01:22:50;;;;;;;;;;;;;;;19.34;81.75;98558.19;5069386;28;19947;-44
2022/04/13 01:25:15;;;;;;;;;;;;;;;19.79;81.29;98558.31;5070962;28;20277;-44
2022/04/13 01:27:41;;;;;;;;;;;;;;;19.65;79.66;98554.09;5067700;28;19998;-44
2022/04/13 01:30:07;;;;;;;;;;;;;;;19.65;80.22;98552.31;5068455;28;19920;-46
2022/04/13 01:32:32;;;;;;;;;;;;;;;19.56;80.58;98558.25;5067710;28;19987;-45
2022/04/13 01:34:57;;;;;;;;;;;;;;;19.19;84.34;98561.03;5066041;28;19931;-45
2022/04/13 01:37:23;;;;;;;;;;;;;;;19.14;83.37;98563.16;5067348;28;19924;-45
2022/04/13 01:39:48;;;;;;;;;;;;;;;19.46;81.50;98557.31;5068363;28;19916;-45
2022/04/13 01:42:13;;;;;;;;;;;;;;;19.31;83.26;98563.66;5064741;28;19928;-45
2022/04/13 01:44:41;;;;;;;;;;;;;;;19.23;83.73;98567.69;5069197;28;19920;-45
2022/04/13 01:47:06;;;;;;;;;;;;;;;19.43;82.48;98562.72;5068647;28;19942;-46
2022/04/13 01:49:31;;;;;;;;;;;;;;;19.58;82.52;98572.03;5067742;28;20361;-44
2022/04/13 01:51:56;;;;;;;;;;;;;;;19.39;83.76;98572.59;5067526;28;19920;-45
2022/04/13 01:54:22;;;;;;;;;;;;;;;19.42;83.49;98569.75;5068650;28;20412;-46
2022/04/13 01:56:47;;;;;;;;;;;;;;;19.60;82.16;98571.91;5069060;28;20757;-44
2022/04/13 01:59:12;;;;;;;;;;;;;;;19.77;81.55;98565.44;5066141;28;20411;-46
2022/04/13 02:01:43;;;;;;;;;;;;;;;19.74;82.20;98570.91;5065996;28;20924;-45
2022/04/13 02:04:19;;;;;;;;;;;;;;;19.46;82.12;98572.97;5069557;28;19995;-45
2022/04/13 02:06:44;;;;;;;;;;;;;;;19.52;82.70;98569.88;5068921;28;19966;-45
2022/04/13 02:09:10;;;;;;;;;;;;;;;19.58;81.53;98572.03;5065334;28;20774;-45
2022/04/13 02:11:35;;;;;;;;;;;;;;;19.35;81.01;98575.56;5066218;28;20381;-46
2022/04/13 02:14:00;;;;;;;;;;;;;;;19.42;83.15;98581.97;5067286;28;20277;-45
2022/04/13 02:16:25;;;;;;;;;;;;;;;19.49;83.28;98583.16;5068986;28;19916;-45
2022/04/13 02:18:51;;;;;;;;;;;;;;;19.38;82.84;98585.75;5069503;28;19916;-45
2022/04/13 02:21:16;;;;;;;;;;;;;;;19.40;83.71;98583.88;5065558;28;19924;-46
2022/04/13 02:23:42;;;;;;;;;;;;;;;19.77;81.95;98588.94;5066962;28;20800;-46
2022/04/13 02:26:07;;;;;;;;;;;;;;;19.60;82.95;98595.44;5068866;28;20938;-44
2022/04/13 02:28:33;;;;;;;;;;;;;;;19.50;82.08;98590.06;5067527;28;19920;-45
2022/04/13 02:30:58;;;;;;;;;;;;;;;19.75;81.75;98594.31;5071407;28;19920;-48
2022/04/13 02:33:23;;;;;;;;;;;;;;;19.34;84.27;98600.84;5072400;28;20395;-47
2022/04/13 02:35:49;;;;;;;;;;;;;;;19.43;83.44;98599.28;5068797;28;19920;-45
2022/04/13 02:38:15;;;;;;;;;;;;;;;19.64;83.37;98597.69;5072138;28;20332;-46
2022/04/13 02:40:41;;;;;;;;;;;;;;;19.80;82.06;98596.56;5073208;28;20407;-45
2022/04/13 02:43:06;;;;;;;;;;;;;;;19.87;81.95;98587.31;5070861;28;19991;-47
2022/04/13 02:45:31;;;;;;;;;;;;;;;19.62;83.78;98604.81;5069438;28;19919;-45
2022/04/13 02:47:56;;;;;;;;;;;;;;;19.39;87.24;98598.72;5068433;28;19931;-45
2022/04/13 02:50:23;;;;;;;;;;;;;;;19.14;87.09;98604.91;5074468;28;19978;-45
2022/04/13 02:52:48;;;;;;;;;;;;;;;18.45;91.00;98601.19;5073875;28;19920;-45
2022/04/13 02:55:14;;;;;;;;;;;;;;;18.54;92.83;98605.75;5069242;28;20346;-45
2022/04/13 02:57:39;;;;;;;;;;;;;;;19.01;89.72;98601.53;5071587;28;19924;-46
2022/04/13 03:00:04;;;;;;;;;;;;;;;18.77;89.97;98591.94;5070343;28;19928;-48
2022/04/13 03:02:30;;;;;;;;;;;;;;;18.99;88.07;98587.75;5070559;28;19920;-44
2022/04/13 03:04:55;;;;;;;;;;;;;;;19.10;86.11;98587.81;5074793;28;19916;-47
2022/04/13 03:07:22;;;;;;;;;;;;;;;19.31;85.26;98606.28;5072088;28;19916;-47
2022/04/13 03:09:48;;;;;;;;;;;;;;;19.08;86.06;98597.53;5069223;28;19920;-45
2022/04/13 03:12:13;;;;;;;;;;;;;;;18.38;90.53;98600.78;5068882;28;19920;-47
2022/04/13 03:14:38;;;;;;;;;;;;;;;19.06;88.66;98601.19;5070719;28;19956;-46
2022/04/13 03:17:04;;;;;;;;;;;;;;;18.98;88.51;98599.16;5070056;28;19924;-48
2022/04/13 03:19:29;;;;;;;;;;;;;;;18.99;85.77;98595.59;5072179;28;19924;-46
2022/04/13 03:21:54;;;;;;;;;;;;;;;19.39;84.77;98595.28;5073310;28;19977;-45
2022/04/13 03:24:21;;;;;;;;;;;;;;;18.56;85.57;98598.66;5070583;28;19927;-46
2022/04/13 03:26:46;;;;;;;;;;;;;;;19.55;82.22;98587.13;5068142;28;19920;-46
2022/04/13 03:29:11;;;;;;;;;;;;;;;19.04;84.52;98597.88;5071959;28;19923;-46
2022/04/13 03:31:36;;;;;;;;;;;;;;;18.94;84.06;98592.50;5069017;28;20594;-45
2022/04/13 03:34:02;;;;;;;;;;;;;;;19.12;83.12;98595.53;5072014;28;19913;-45
2022/04/13 03:36:27;;;;;;;;;;;;;;;19.27;84.03;98594.38;5070449;28;19916;-44
2022/04/13 03:38:52;;;;;;;;;;;;;;;19.06;84.64;98602.03;5070370;28;19927;-45
2022/04/13 03:41:18;;;;;;;;;;;;;;;18.96;85.35;98608.88;5066303;28;19916;-45
2022/04/13 03:43:43;;;;;;;;;;;;;;;18.78;85.69;98598.00;5070253;28;19951;-45
2022/04/13 03:46:08;;;;;;;;;;;;;;;19.14;85.23;98609.31;5072235;28;21161;-45
2022/04/13 03:48:34;;;;;;;;;;;;;;;18.83;85.30;98605.47;5069252;28;19954;-47
2022/04/13 03:51:00;;;;;;;;;;;;;;;18.59;86.54;98609.72;5070134;28;20416;-45
2022/04/13 03:53:25;;;;;;;;;;;;;;;18.03;88.96;98617.13;5064311;28;19920;-44
2022/04/13 03:55:50;;;;;;;;;;;;;;;18.55;89.20;98617.88;5069519;28;19920;-45
2022/04/13 03:58:16;;;;;;;;;;;;;;;18.00;90.45;98627.75;5074377;28;20339;-45
2022/04/13 04:00:41;;;;;;;;;;;;;;;17.54;95.41;98634.28;5070753;28;19916;-45
2022/04/13 04:03:06;;;;;;;;;;;;;;;17.78;94.29;98633.56;5072356;28;19969;-44
2022/04/13 04:05:32;;;;;;;;;;;;;;;18.42;91.04;98628.31;5070674;28;19963;-46
2022/04/13 04:07:57;;;;;;;;;;;;;;;18.90;88.35;98631.00;5072417;28;20606;-45
2022/04/13 04:10:22;;;;;;;;;;;;;;;17.98;91.09;98634.84;5069286;28;20599;-45
2022/04/13 04:12:47;;;;;;;;;;;;;;;18.18;91.38;98639.53;5053742;28;20561;-45
2022/04/13 04:15:13;;;;;;;;;;;;;;;18.29;90.98;98636.19;5069274;28;20405;-47
2022/04/13 04:17:38;;;;;;;;;;;;;;;18.31;90.36;98636.88;5070826;28;19928;-45
2022/04/13 04:20:04;;;;;;;;;;;;;;;18.31;90.29;98642.09;5071269;28;20407;-45
2022/04/13 04:22:29;;;;;;;;;;;;;;;17.66;93.97;98639.59;5069819;28;19915;-45
2022/04/13 04:24:54;;;;;;;;;;;;;;;18.19;92.46;98637.75;5070328;28;19926;-46
2022/04/13 04:27:20;;;;;;;;;;;;;;;17.97;93.02;98647.03;5066952;28;19917;-45
2022/04/13 04:29:45;;;;;;;;;;;;;;;17.56;92.72;98650.63;5070495;28;19916;-45
2022/04/13 04:32:11;;;;;;;;;;;;;;;17.60;93.64;98647.81;5071016;28;19973;-46
2022/04/13 04:34:36;;;;;;;;;;;;;;;17.93;93.32;98645.56;5066817;28;19952;-44
2022/04/13 04:37:01;;;;;;;;;;;;;;;17.82;93.73;98640.25;5065558;28;19974;-45
2022/04/13 04:39:26;;;;;;;;;;;;;;;17.29;94.73;98647.25;5065877;28;19924;-45
2022/04/13 04:41:52;;;;;;;;;;;;;;;17.33;96.11;98648.69;5066862;28;19935;-47
2022/04/13 04:44:17;;;;;;;;;;;;;;;16.92;97.51;98658.25;5068476;28;19917;-45
2022/04/13 04:46:42;;;;;;;;;;;;;;;17.18;98.89;98665.31;5069196;28;19925;-47
2022/04/13 04:49:08;;;;;;;;;;;;;;;17.32;96.61;98657.44;5071246;28;20292;-45
2022/04/13 04:51:33;;;;;;;;;;;;;;;17.69;95.93;98655.84;5068328;28;20293;-45
2022/04/13 04:53:58;;;;;;;;;;;;;;;17.94;94.12;98657.66;5066711;28;19930;-45
2022/04/13 04:56:24;;;;;;;;;;;;;;;17.79;95.98;98656.06;5067484;28;19931;-47
2022/04/13 04:58:49;;;;;;;;;;;;;;;17.59;97.95;98669.59;5068959;28;20423;-45
2022/04/13 05:01:14;;;;;;;;;;;;;;;17.25;98.53;98671.78;5069030;28;19999;-47
2022/04/13 05:03:43;;;;;;;;;;;;;;;17.32;99.75;98675.66;5068350;28;20019;-47
2022/04/13 05:06:08;;;;;;;;;;;;;;;18.08;97.44;98674.13;5069062;28;19920;-45
2022/04/13 05:08:33;;;;;;;;;;;;;;;18.16;95.99;98672.66;5068651;28;19924;-46
2022/04/13 05:10:59;;;;;;;;;;;;;;;18.44;95.71;98677.75;5068019;28;19965;-45
2022/04/13 05:13:25;;;;;;;;;;;;;;;18.13;97.28;98685.06;5072179;28;19919;-46
2022/04/13 05:15:50;;;;;;;;;;;;;;;17.82;98.75;98692.34;5069018;28;19920;-45
2022/04/13 05:18:15;;;;;;;;;;;;;;;18.23;99.22;98675.69;5070050;28;20022;-47
2022/04/13 05:20:40;;;;;;;;;;;;;;;18.28;97.82;98686.63;5070418;28;19955;-46
2022/04/13 05:23:06;;;;;;;;;;;;;;;17.96;97.15;98681.84;5066469;28;19997;-46
2022/04/13 05:25:31;;;;;;;;;;;;;;;18.13;97.33;98693.75;5066490;28;19959;-46
2022/04/13 05:27:56;;;;;;;;;;;;;;;18.30;94.19;98687.38;5067967;28;19981;-45
2022/04/13 05:30:22;;;;;;;;;;;;;;;18.60;94.12;98687.00;5061567;28;19960;-48
2022/04/13 05:32:58;;;;;;;;;;;;;;;18.37;94.05;98690.38;5062972;28;19927;-46
2022/04/13 05:35:24;;;;;;;;;;;;;;;18.10;95.30;98699.16;5072121;28;19926;-45
2022/04/13 05:37:50;;;;;;;;;;;;;;;18.24;95.60;98707.81;5061786;28;21968;-45
2022/04/13 05:40:15;;;;;;;;;;;;;;;18.71;92.74;98701.09;5065875;28;19920;-47
2022/04/13 05:42:40;;;;;;;;;;;;;;;18.59;92.73;98702.78;5064243;28;20311;-48
2022/04/13 05:45:06;;;;;;;;;;;;;;;18.33;94.66;98709.78;5069476;28;19927;-47
2022/04/13 05:47:31;;;;;;;;;;;;;;;18.33;95.19;98713.22;5066464;28;19921;-47
2022/04/13 05:49:57;;;;;;;;;;;;;;;18.32;96.41;98719.38;5069320;28;19916;-48
2022/04/13 05:52:22;;;;;;;;;;;;;;;18.16;97.48;98716.16;5071154;28;20376;-36
2022/04/13 05:54:47;;;;;;;;;;;;;;;18.51;96.78;98723.31;5069905;28;19920;-36
2022/04/13 05:57:12;;;;;;;;;;;;;;;18.26;94.58;98732.81;5066772;28;19930;-36
2022/04/13 05:59:38;;;;;;;;;;;;;;;18.10;96.31;98721.78;5068489;28;20010;-36
2022/04/13 06:02:03;;;;;;;;;;;;;;;18.62;94.32;98720.81;5065854;28;19967;-36
2022/04/13 06:04:28;;;;;;;;;;;;;;;17.60;99.12;98736.34;5067230;28;19927;-36
2022/04/13 06:06:59;;;;;;;;;;;;;;;18.03;98.30;98725.72;5068285;28;19967;-36
2022/04/13 06:09:24;;;;;;;;;;;;;;;17.86;97.27;98726.84;5069268;28;19920;-36
2022/04/13 06:11:49;;;;;;;;;;;;;;;18.15;96.40;98730.97;5065673;28;19923;-37
2022/04/13 06:14:15;;;;;;;;;;;;;;;18.24;95.53;98733.88;5066717;28;19935;-36
2022/04/13 06:16:40;;;;;;;;;;;;;;;18.32;96.32;98731.59;5066759;28;19966;-36
2022/04/13 06:19:05;;;;;;;;;;;;;;;18.58;94.46;98721.97;5068465;28;19924;-36
2022/04/13 06:21:31;;;;;;;;;;;;;;;19.09;91.72;98727.09;5067269;28;19931;-36
2022/04/13 06:23:56;;;;;;;;;;;;;;;19.11;89.44;98733.06;5065720;28;19916;-36
2022/04/13 06:26:21;;;;;;;;;;;;;;;19.27;89.15;98739.75;5066263;28;19920;-36
2022/04/13 06:28:46;;;;;;;;;;;;;;;18.80;91.26;98745.63;5070561;28;19912;-36
2022/04/13 06:31:12;;;;;;;;;;;;;;;19.19;91.81;98743.75;5066411;28;19920;-36
2022/04/13 06:33:37;;;;;;;;;;;;;;;19.48;91.43;98753.03;5067246;28;19923;-36
2022/04/13 06:36:05;;;;;;;;;;;;;;;19.59;88.80;98746.13;5068020;28;19924;-36
2022/04/13 06:38:30;;;;;;;;;;;;;;;19.90;87.57;98748.25;5063466;28;19924;-36
2022/04/13 06:40:55;;;;;;;;;;;;;;;19.31;88.64;98754.28;5068523;28;19917;-36
2022/04/13 06:43:21;;;;;;;;;;;;;;;18.83;92.51;98756.81;5069079;28;19924;-36
2022/04/13 06:45:46;;;;;;;;;;;;;;;20.21;88.22;98758.09;5067273;28;19931;-36
2022/04/13 06:48:11;;;;;;;;;;;;;;;20.61;86.25;98756.84;5067097;28;19938;-36
2022/04/13 06:50:36;;;;;;;;;;;;;;;19.89;84.94;98757.03;5067541;28;19913;-36
2022/04/13 06:53:02;;;;;;;;;;;;;;;20.06;84.91;98757.44;5064261;28;19927;-36
2022/04/13 06:55:27;;;;;;;;;;;;;;;20.97;84.18;98755.75;5066682;28;20023;-36
2022/04/13 06:57:52;;;;;;;;;;;;;;;21.12;84.36;98761.59;5064980;28;20011;-36
2022/04/13 07:00:18;;;;;;;;;;;;;;;20.99;81.41;98763.50;5069080;28;19916;-36
2022/04/13 07:02:43;;;;;;;;;;;;;;;21.02;83.76;98771.09;5071291;28;20029;-36
2022/04/13 07:05:08;;;;;;;;;;;;;;;21.46;82.52;98766.75;5066186;28;20007;-36
2022/04/13 07:07:33;;;;;;;;;;;;;;;22.20;82.55;98773.81;5067059;28;19928;-36
2022/04/13 07:09:59;;;;;;;;;;;;;;;22.25;80.82;98776.91;5066448;28;19920;-36
2022/04/13 07:12:24;;;;;;;;;;;;;;;22.20;84.51;98781.69;5066714;28;19924;-36
2022/04/13 07:14:50;;;;;;;;;;;;;;;22.04;80.21;98777.72;5067851;28;19921;-36
2022/04/13 07:17:15;;;;;;;;;;;;;;;22.13;81.77;98781.38;5068516;28;19921;-36
2022/04/13 07:19:40;;;;;;;;;;;;;;;22.41;81.61;98782.53;5070255;28;19930;-36
2022/04/13 07:22:05;;;;;;;;;;;;;;;22.88;79.40;98788.16;5069233;28;19920;-36
2022/04/13 07:24:31;;;;;;;;;;;;;;;22.74;76.22;98786.72;5050148;28;19913;-36
2022/04/13 07:26:56;;;;;;;;;;;;;;;23.22;77.46;98790.50;5070766;28;19930;-36
2022/04/13 07:29:21;;;;;;;;;;;;;;;21.37;78.61;98793.66;5070521;28;19954;-36
2022/04/13 07:31:46;;;;;;;;;;;;;;;21.91;77.73;98798.03;5067651;28;20500;-36
2022/04/13 07:34:12;;;;;;;;;;;;;;;22.22;77.36;98796.38;5063486;28;19951;-36
2022/04/13 07:36:37;;;;;;;;;;;;;;;20.50;87.01;98816.97;5066612;28;19920;-36
2022/04/13 07:39:02;;;;;;;;;;;;;;;20.29;91.82;98817.63;5067874;28;19924;-36
2022/04/13 07:41:28;;;;;;;;;;;;;;;20.50;92.96;98819.59;5059744;28;19924;-36
2022/04/13 07:43:55;;;;;;;;;;;;;;;20.74;91.21;98815.13;5069730;28;19921;-36
2022/04/13 07:46:20;;;;;;;;;;;;;;;21.40;85.08;98810.00;5068036;28;19967;-36
2022/04/13 07:48:46;;;;;;;;;;;;;;;22.35;78.02;98811.91;5070507;28;19959;-36
2022/04/13 07:51:11;;;;;;;;;;;;;;;21.58;85.58;98820.81;5068966;28;20281;-36
2022/04/13 07:53:36;;;;;;;;;;;;;;;21.07;79.83;98805.59;5072036;28;19927;-36
2022/04/13 07:56:01;;;;;;;;;;;;;;;21.24;86.27;98814.75;5069321;28;20003;-36
2022/04/13 07:58:26;;;;;;;;;;;;;;;20.63;89.66;98825.59;5070835;28;19931;-36
2022/04/13 08:00:52;;;;;;;;;;;;;;;21.14;89.72;98825.09;5069470;28;21017;-36
2022/04/13 08:03:17;;;;;;;;;;;;;;;21.72;88.18;98832.78;5068973;28;19967;-36
2022/04/13 08:05:42;;;;;;;;;;;;;;;21.22;91.06;98838.44;5071695;28;19969;-36
2022/04/13 08:08:07;;;;;;;;;;;;;;;21.59;87.58;98838.19;5068248;28;19920;-36
2022/04/13 08:10:33;;;;;;;;;;;;;;;21.10;90.61;98839.41;5069239;28;19932;-36
2022/04/13 08:12:58;;;;;;;;;;;;;;;21.03;94.42;98841.69;5069101;28;20584;-36
2022/04/13 08:15:24;;;;;;;;;;;;;;;20.51;98.07;98853.50;5070612;28;20444;-36
2022/04/13 08:17:49;;;;;;;;;;;;;;;21.18;93.73;98841.44;5069533;28;19968;-36
2022/04/13 08:20:14;;;;;;;;;;;;;;;21.30;96.29;98851.78;5070164;28;19919;-36
2022/04/13 08:22:40;;;;;;;;;;;;;;;22.13;89.71;98842.53;5072410;28;19923;-36
2022/04/13 08:25:05;;;;;;;;;;;;;;;21.18;92.84;98847.50;5068237;28;19921;-36
2022/04/13 08:27:30;;;;;;;;;;;;;;;22.03;88.96;98844.25;5070118;28;19985;-36
2022/04/13 08:29:56;;;;;;;;;;;;;;;23.05;84.81;98843.66;5069893;28;19916;-36
2022/04/13 08:32:21;;;;;;;;;;;;;;;22.84;90.83;98848.94;5069742;28;19963;-36
2022/04/13 08:34:48;;;;;;;;;;;;;;;22.02;89.48;98847.81;5066292;28;19983;-36
2022/04/13 08:37:13;;;;;;;;;;;;;;;23.09;88.71;98842.44;5064730;28;19998;-36
2022/04/13 08:39:39;;;;;;;;;;;;;;;23.54;86.52;98844.66;5067978;28;20587;-36
2022/04/13 08:42:12;;;;;;;;;;;;;;;21.90;97.34;98867.19;5068581;28;19917;-36
2022/04/13 08:44:40;;;;;;;;;;;;;;;22.09;94.59;98859.47;5068060;28;19967;-36
2022/04/13 08:47:07;;;;;;;;;;;;;;;22.23;92.12;98854.91;5070263;28;19966;-36
2022/04/13 08:49:33;;;;;;;;;;;;;;;22.21;95.93;98862.03;5069663;28;20026;-36
2022/04/13 08:52:03;;;;;;;;;;;;;;;21.85;93.77;98858.81;5071185;28;19917;-36
2022/04/13 08:54:31;;;;;;;;;;;;;;;22.52;94.91;98863.81;5068775;28;19916;-36
2022/04/13 08:56:56;;;;;;;;;;;;;;;22.53;90.63;98848.88;5069181;28;20320;-36
2022/04/13 08:59:24;;;;;;;;;;;;;;;23.68;86.05;98854.75;5066830;28;19924;-36
2022/04/13 09:01:56;;;;;;;;;;;;;;;21.90;93.64;98862.75;5067431;28;20442;-36
2022/04/13 09:04:21;;;;;;;;;;;;;;;23.19;92.53;98859.06;5064345;28;20357;-36
2022/04/13 09:06:46;;;;;;;;;;;;;;;22.83;92.68;98866.50;5066083;28;20003;-36
2022/04/13 09:09:15;;;;;;;;;;;;;;;22.52;96.53;98874.31;5068885;28;19920;-36
2022/04/13 09:11:43;;;;;;;;;;;;;;;22.41;96.71;98874.38;5067333;28;19912;-36
2022/04/13 09:14:08;;;;;;;;;;;;;;;22.80;98.85;98873.78;5065721;28;19927;-36
2022/04/13 09:16:33;;;;;;;;;;;;;;;23.38;95.99;98871.44;5067513;28;19920;-36
2022/04/13 09:18:59;;;;;;;;;;;;;;;22.66;100.00;98888.91;5066907;28;19924;-36
2022/04/13 09:21:24;;;;;;;;;;;;;;;23.49;91.74;98886.25;5060308;28;20003;-36
2022/04/13 09:23:49;;;;;;;;;;;;;;;23.31;96.72;98886.91;5067424;28;19967;-37
2022/04/13 09:26:15;;;;;;;;;;;;;;;22.96;100.00;98901.22;5067064;28;19916;-36
2022/04/13 09:28:41;;;;;;;;;;;;;;;23.18;97.24;98905.53;5068549;28;20577;-37
2022/04/13 09:31:06;;;;;;;;;;;;;;;23.25;98.32;98900.56;5066915;28;19924;-36
2022/04/13 09:33:32;;;;;;;;;;;;;;;22.33;100.00;98905.69;5069589;28;20365;-36
2022/04/13 09:35:57;;;;;;;;;;;;;;;22.28;100.00;98906.06;5066275;28;19927;-36
2022/04/13 09:38:22;;;;;;;;;;;;;;;22.32;100.00;98911.88;5069105;28;19920;-36
2022/04/13 09:40:49;;;;;;;;;;;;;;;23.83;96.18;98896.47;5066409;28;19987;-36
2022/04/13 09:43:18;;;;;;;;;;;;;;;22.75;100.00;98919.63;5064892;28;19920;-36
2022/04/13 09:45:44;;;;;;;;;;;;;;;23.24;95.66;98909.44;5066970;28;19928;-36
2022/04/13 09:48:10;;;;;;;;;;;;;;;23.53;95.31;98898.16;5066586;28;19931;-36
2022/04/13 09:50:37;;;;;;;;;;;;;;;23.67;95.49;98895.16;5064593;28;19916;-36
2022/04/13 09:53:06;;;;;;;;;;;;;;;23.18;97.22;98899.44;5065777;28;20016;-36
2022/04/13 09:55:44;;;;;;;;;;;;;;;23.72;93.10;98892.97;5066271;28;19921;-36
2022/04/13 09:58:13;;;;;;;;;;;;;;;23.63;94.62;98899.03;5068528;28;19978;-36
2022/04/13 10:00:41;;;;;;;;;;;;;;;23.34;94.77;98897.16;5066549;28;21343;-36
2022/04/13 10:03:10;;;;;;;;;;;;;;;23.35;100.00;98901.44;5068003;28;19946;-36
2022/04/13 10:05:36;;;;;;;;;;;;;;;23.84;91.71;98895.53;5065139;28;20370;-36
2022/04/13 10:08:10;;;;;;;;;;;;;;;25.39;86.84;98895.31;5064029;28;19927;-36
2022/04/13 10:10:39;;;;;;;;;;;;;;;25.25;86.52;98888.72;5050671;28;19916;-36
2022/04/13 10:13:04;;;;;;;;;;;;;;;23.55;93.52;98901.50;5067905;28;19927;-36
2022/04/13 10:15:29;;;;;;;;;;;;;;;24.78;87.32;98885.25;5064908;28;19925;-36
2022/04/13 10:17:58;;;;;;;;;;;;;;;24.60;91.13;98885.97;5068259;28;19993;-36
2022/04/13 10:20:24;;;;;;;;;;;;;;;25.36;89.21;98890.34;5067342;28;20019;-36
2022/04/13 10:22:59;;;;;;;;;;;;;;;25.64;83.80;98885.06;5065128;28;20003;-36
2022/04/13 10:25:28;;;;;;;;;;;;;;;24.01;91.67;98893.03;5063526;28;19924;-36
2022/04/13 10:27:53;;;;;;;;;;;;;;;23.99;97.56;98896.75;5064798;28;20353;-36
2022/04/13 10:30:28;;;;;;;;;;;;;;;24.03;89.47;98887.63;5069236;28;19947;-36
2022/04/13 10:32:58;;;;;;;;;;;;;;;23.79;89.05;98893.31;5064245;28;19920;-36
2022/04/13 10:35:23;;;;;;;;;;;;;;;24.65;94.11;98890.81;5069047;28;19924;-36
2022/04/13 10:37:48;;;;;;;;;;;;;;;25.54;88.39;98881.63;5064942;28;19924;-36
2022/04/13 10:40:13;;;;;;;;;;;;;;;24.57;90.45;98883.63;5068685;28;19920;-36
2022/04/13 10:42:39;;;;;;;;;;;;;;;26.24;87.76;98879.22;5065864;28;19917;-36
2022/04/13 10:45:05;;;;;;;;;;;;;;;24.95;84.34;98876.63;5066283;28;19924;-36
2022/04/13 10:47:36;;;;;;;;;;;;;;;25.91;82.37;98878.09;5064076;28;19998;-36
2022/04/13 10:50:02;;;;;;;;;;;;;;;24.86;91.76;98882.75;5068303;28;19965;-37
2022/04/13 10:52:29;;;;;;;;;;;;;;;24.28;94.18;98882.78;5072785;28;19943;-36
2022/04/13 10:54:57;;;;;;;;;;;;;;;25.48;89.93;98875.16;5069837;28;19965;-36
2022/04/13 10:57:23;;;;;;;;;;;;;;;24.20;93.04;98881.69;5074062;28;19988;-36
2022/04/13 10:59:52;;;;;;;;;;;;;;;24.60;98.61;98895.69;5069727;28;20706;-36
2022/04/13 11:02:19;;;;;;;;;;;;;;;24.47;97.74;98903.00;5069294;28;20242;-36
2022/04/13 11:04:44;;;;;;;;;;;;;;;24.50;96.15;98893.06;5068319;28;20369;-37
2022/04/13 11:07:10;;;;;;;;;;;;;;;24.78;94.98;98896.59;5070632;28;19923;-36
2022/04/13 11:09:39;;;;;;;;;;;;;;;25.66;97.55;98901.56;5074428;28;20817;-36
2022/04/13 11:12:05;;;;;;;;;;;;;;;24.01;95.24;98902.72;5070621;28;19924;-36
2022/04/13 11:14:31;;;;;;;;;;;;;;;24.49;91.27;98895.81;5071267;28;19923;-36
2022/04/13 11:17:05;;;;;;;;;;;;;;;25.25;92.35;98903.72;5070346;28;19916;-37
2022/04/13 11:19:30;;;;;;;;;;;;;;;24.65;100.00;98911.06;5070433;28;19985;-36
2022/04/13 11:21:58;;;;;;;;;;;;;;;24.93;90.23;98899.63;5068972;28;19920;-36
2022/04/13 11:24:33;;;;;;;;;;;;;;;25.53;87.32;98898.44;5069044;28;19927;-36
2022/04/13 11:26:58;;;;;;;;;;;;;;;25.38;89.56;98898.91;5068480;28;19920;-36
2022/04/13 11:29:23;;;;;;;;;;;;;;;26.36;84.28;98898.31;5068023;28;19977;-36
2022/04/13 11:32:01;;;;;;;;;;;;;;;26.15;79.92;98893.34;5062512;28;19916;-36
2022/04/13 11:34:27;;;;;;;;;;;;;;;24.93;97.16;98906.69;5069113;28;19927;-36
2022/04/13 11:36:52;;;;;;;;;;;;;;;24.82;95.48;98908.53;5071341;28;19916;-36
2022/04/13 11:39:37;;;;;;;;;;;;;;;25.13;94.57;98910.91;5074082;28;19971;-36
2022/04/13 11:42:02;;;;;;;;;;;;;;;26.09;87.30;98902.69;5073417;28;20007;-36
2022/04/13 11:44:31;;;;;;;;;;;;;;;26.13;92.59;98914.59;5069519;28;20425;-36
2022/04/13 11:47:11;;;;;;;;;;;;;;;25.44;95.67;98914.16;5071327;28;19916;-36
2022/04/13 11:49:37;;;;;;;;;;;;;;;25.49;97.50;98919.00;5070420;28;19920;-36
2022/04/13 11:52:22;;;;;;;;;;;;;;;26.25;85.93;98908.13;5070360;28;19983;-36
2022/04/13 11:54:47;;;;;;;;;;;;;;;25.42;92.17;98920.56;5070034;28;19927;-36
2022/04/13 11:57:12;;;;;;;;;;;;;;;25.09;96.41;98921.88;5066739;28;19916;-36
2022/04/13 11:59:49;;;;;;;;;;;;;;;25.97;93.44;98909.16;5067374;28;19928;-36
2022/04/13 12:02:15;;;;;;;;;;;;;;;25.41;85.70;98903.91;5063930;28;19942;-36
2022/04/13 12:04:43;;;;;;;;;;;;;;;25.37;90.57;98907.81;5066418;28;19920;-36
2022/04/13 12:07:09;;;;;;;;;;;;;;;26.17;86.24;98904.59;5066262;28;19927;-36
2022/04/13 12:09:34;;;;;;;;;;;;;;;27.24;82.70;98903.56;5058293;28;19956;-36
2022/04/13 12:12:00;;;;;;;;;;;;;;;26.28;82.84;98910.47;5063114;28;20040;-36
2022/04/13 12:14:30;;;;;;;;;;;;;;;25.08;93.88;98925.50;5059721;28;20352;-36
2022/04/13 12:16:55;;;;;;;;;;;;;;;25.18;88.14;98910.47;5066144;28;20086;-36
2022/04/13 12:19:21;;;;;;;;;;;;;;;26.74;80.85;98909.53;5068972;28;20464;-36
2022/04/13 12:21:46;;;;;;;;;;;;;;;25.22;86.60;98920.63;5068266;28;19955;-36
2022/04/13 12:24:11;;;;;;;;;;;;;;;25.03;95.07;98924.13;5069205;28;19962;-36
2022/04/13 12:26:37;;;;;;;;;;;;;;;24.99;99.72;98920.13;5068827;28;19938;-36
2022/04/13 12:29:12;;;;;;;;;;;;;;;24.84;97.22;98921.56;5071694;28;19916;-36
2022/04/13 12:31:53;;;;;;;;;;;;;;;25.68;92.80;98910.13;5069281;28;19943;-36
2022/04/13 12:34:19;;;;;;;;;;;;;;;25.01;94.29;98905.00;5070294;28;19916;-36
2022/04/13 12:36:49;;;;;;;;;;;;;;;25.44;92.07;98908.88;5067102;28;20433;-36
2022/04/13 12:39:14;;;;;;;;;;;;;;;26.18;88.71;98898.31;5068091;28;19930;-36